Time;durP1;ratioP1;P1;durP2;ratioP2;P2;SDS_P1;SDS_P2;PMS_P1;PMS_P2;Temp;Humidity;BMP_temperature;BMP_pressure;BME280_temperature;BME280_humidity;BME280_pressure;Samples;Min_cycle;Max_cycle;Signal;HPM_P1;HPM_P2
2022/04/28 00:01:44;;;;;;;13.02;4.25;;;5.40;64.00;;;;;;4103495;28;20023;-82
2022/04/28 00:03:45;;;;;;;7.25;3.88;;;5.40;64.20;;;;;;4104643;28;20083;-82
2022/04/28 00:05:46;;;;;;;10.23;3.97;;;5.30;64.30;;;;;;4105052;28;20031;-84
2022/04/28 00:07:47;;;;;;;9.70;4.00;;;5.30;64.40;;;;;;4104418;28;20708;-82
2022/04/28 00:09:47;;;;;;;11.75;4.78;;;5.30;64.60;;;;;;4110537;28;20054;-83
2022/04/28 00:11:51;;;;;;;9.70;3.85;;;5.30;64.80;;;;;;4103302;28;20036;-82
2022/04/28 00:13:51;;;;;;;10.80;3.92;;;5.30;64.90;;;;;;4106456;28;20051;-82
2022/04/28 00:15:52;;;;;;;9.15;4.63;;;5.30;64.90;;;;;;4082172;29;20083;-82
2022/04/28 00:17:53;;;;;;;8.93;3.95;;;5.20;64.90;;;;;;4106278;28;20030;-82
2022/04/28 00:19:53;;;;;;;8.20;3.88;;;5.20;64.80;;;;;;4121504;28;20027;-82
2022/04/28 00:21:54;;;;;;;11.18;3.80;;;5.20;64.70;;;;;;4101538;28;20106;-82
2022/04/28 00:23:54;;;;;;;7.82;3.63;;;5.20;64.70;;;;;;4102773;28;20043;-82
2022/04/28 00:25:55;;;;;;;13.13;4.55;;;5.10;64.60;;;;;;4105824;28;20039;-82
2022/04/28 00:27:55;;;;;;;10.65;3.53;;;5.10;64.60;;;;;;4092179;28;20034;-82
2022/04/28 00:29:56;;;;;;;11.98;3.70;;;5.10;64.50;;;;;;4119395;28;20532;-82
2022/04/28 00:31:57;;;;;;;7.93;3.58;;;5.00;64.40;;;;;;4094136;28;20035;-82
2022/04/28 00:33:58;;;;;;;10.15;4.10;;;5.00;64.60;;;;;;4105130;28;20027;-82
2022/04/28 00:35:58;;;;;;;13.50;4.15;;;5.00;64.80;;;;;;4106103;28;20034;-81
2022/04/28 00:38:00;;;;;;;11.57;4.32;;;5.00;64.90;;;;;;4103672;28;20493;-82
2022/04/28 00:40:01;;;;;;;12.10;4.30;;;4.90;65.00;;;;;;4101773;28;20501;-82
2022/04/28 00:42:07;;;;;;;9.15;4.43;;;4.90;65.10;;;;;;4104615;28;20035;-82
2022/04/28 00:44:10;;;;;;;9.10;4.07;;;4.90;65.10;;;;;;4102447;28;20070;-82
2022/04/28 00:46:11;;;;;;;;;;;4.90;65.90;;;;;;4096691;28;20118;-82
2022/04/28 00:50:40;;;;;;;6.55;3.78;;;4.80;64.90;;;;;;4104242;28;20039;-82
2022/04/28 00:52:41;;;;;;;15.57;4.97;;;4.80;64.80;;;;;;4103265;28;20086;-82
2022/04/28 00:54:42;;;;;;;13.60;4.90;;;4.80;64.80;;;;;;4093877;28;20047;-82
2022/04/28 00:56:43;;;;;;;16.00;5.65;;;4.80;64.90;;;;;;4094478;28;20054;-82
2022/04/28 00:58:44;;;;;;;11.35;4.95;;;4.70;64.80;;;;;;4101306;28;20043;-81
2022/04/28 01:00:45;;;;;;;10.07;4.57;;;4.70;65.00;;;;;;4105190;28;20100;-81
2022/04/28 01:02:45;;;;;;;12.50;5.05;;;4.70;65.00;;;;;;4113405;28;20027;-81
2022/04/28 01:04:47;;;;;;;10.07;5.25;;;4.60;65.00;;;;;;4095830;28;20042;-80
2022/04/28 01:06:48;;;;;;;12.65;5.15;;;4.60;65.00;;;;;;4099151;28;20061;-80
2022/04/28 01:08:49;;;;;;;11.70;5.00;;;4.60;65.20;;;;;;4100207;28;20493;-81
2022/04/28 01:10:51;;;;;;;15.68;4.65;;;4.60;65.20;;;;;;4107760;28;20035;-82
2022/04/28 01:12:52;;;;;;;15.85;5.05;;;4.50;65.30;;;;;;4100570;28;20058;-82
2022/04/28 01:14:53;;;;;;;9.52;4.95;;;4.60;65.40;;;;;;4101761;28;20161;-82
2022/04/28 01:16:53;;;;;;;11.68;5.65;;;4.50;65.50;;;;;;4103604;28;20039;-82
2022/04/28 01:18:54;;;;;;;11.18;5.38;;;4.50;65.60;;;;;;4120849;28;20034;-82
2022/04/28 01:21:00;;;;;;;10.43;5.35;;;4.50;65.60;;;;;;4113638;28;20023;-82
2022/04/28 01:23:03;;;;;;;13.10;5.65;;;4.50;65.60;;;;;;4109582;28;20058;-82
2022/04/28 01:25:07;;;;;;;;;;;4.50;65.60;;;;;;4103279;28;20039;-82
2022/04/28 01:27:08;;;;;;;13.23;5.23;;;4.40;66.30;;;;;;4100380;28;19941;-82
2022/04/28 01:29:09;;;;;;;14.23;5.88;;;4.40;65.30;;;;;;4106470;28;20107;-83
2022/04/28 01:31:09;;;;;;;11.90;6.00;;;4.40;65.50;;;;;;4108343;28;20053;-82
2022/04/28 01:33:10;;;;;;;12.57;6.10;;;4.40;65.70;;;;;;4123015;28;20485;-82
2022/04/28 01:35:11;;;;;;;10.82;4.88;;;4.40;65.70;;;;;;4102663;28;20478;-81
2022/04/28 01:37:11;;;;;;;16.98;6.00;;;4.30;65.70;;;;;;4120809;28;20094;-82
2022/04/28 01:39:12;;;;;;;14.93;6.18;;;4.30;65.80;;;;;;4102720;28;20050;-82
2022/04/28 01:41:12;;;;;;;14.57;6.57;;;4.30;65.80;;;;;;4104877;28;20110;-83
2022/04/28 01:43:13;;;;;;;17.08;6.28;;;4.30;65.90;;;;;;4102713;28;20539;-82
2022/04/28 01:45:14;;;;;;;10.05;5.97;;;4.30;65.90;;;;;;4116255;28;20102;-82
2022/04/28 01:47:15;;;;;;;13.73;6.38;;;4.20;65.80;;;;;;4110381;28;20552;-82
2022/04/28 01:49:16;;;;;;;12.70;6.65;;;4.20;65.90;;;;;;4099335;28;20027;-82
2022/04/28 01:55:55;;;;;;;15.05;6.72;;;4.10;66.10;;;;;;4103180;28;20496;-82
2022/04/28 01:57:56;;;;;;;15.68;6.88;;;4.10;66.10;;;;;;4098523;28;20031;-82
2022/04/28 02:00:00;;;;;;;17.73;7.25;;;4.10;66.20;;;;;;4106519;28;20062;-82
2022/04/28 02:02:01;;;;;;;15.52;7.32;;;4.10;66.30;;;;;;4099902;28;20437;-82
2022/04/28 02:04:01;;;;;;;15.32;7.07;;;4.10;66.40;;;;;;4104270;28;20097;-82
2022/04/28 02:06:02;;;;;;;21.10;7.05;;;4.10;66.50;;;;;;4120813;28;20504;-82
2022/04/28 02:08:03;;;;;;;18.05;7.03;;;4.10;66.70;;;;;;4104664;28;20071;-82
2022/04/28 02:10:06;;;;;;;15.93;7.03;;;4.00;66.70;;;;;;4122365;28;20073;-82
2022/04/28 02:12:07;;;;;;;14.00;6.75;;;4.00;66.80;;;;;;4117811;28;20034;-81
2022/04/28 02:14:07;;;;;;;13.73;6.75;;;4.00;66.90;;;;;;4098126;28;20097;-82
2022/04/28 02:16:10;;;;;;;16.17;6.80;;;4.00;67.10;;;;;;4104754;28;20437;-82
2022/04/28 02:18:11;;;;;;;14.77;7.35;;;4.00;67.20;;;;;;4108420;28;20031;-81
2022/04/28 02:20:11;;;;;;;17.88;6.65;;;4.00;67.00;;;;;;4116558;28;20039;-82
2022/04/28 02:22:12;;;;;;;21.05;7.70;;;3.90;66.90;;;;;;4103800;28;20031;-82
2022/04/28 02:24:13;;;;;;;20.20;7.68;;;3.90;67.70;;;;;;4115631;28;20054;-82
2022/04/28 02:26:13;;;;;;;11.63;6.68;;;3.90;67.00;;;;;;4119508;28;20039;-82
2022/04/28 02:28:14;;;;;;;14.35;7.07;;;3.90;67.10;;;;;;4083192;29;20031;-82
2022/04/28 02:30:14;;;;;;;19.30;6.85;;;3.90;67.10;;;;;;4103675;28;20103;-82
2022/04/28 02:32:15;;;;;;;13.80;7.00;;;3.90;67.10;;;;;;4106168;28;20130;-82
2022/04/28 02:34:15;;;;;;;16.83;6.93;;;3.90;67.20;;;;;;4105411;28;20038;-81
2022/04/28 02:36:16;;;;;;;14.48;6.70;;;3.80;67.30;;;;;;4123743;28;20034;-82
2022/04/28 02:38:17;;;;;;;14.02;7.05;;;3.80;67.40;;;;;;4101595;28;20535;-82
2022/04/28 02:40:17;;;;;;;15.35;7.50;;;3.80;67.50;;;;;;4120654;28;20037;-82
2022/04/28 02:42:18;;;;;;;17.05;7.35;;;3.80;67.50;;;;;;4117315;28;20393;-82
2022/04/28 02:44:18;;;;;;;14.98;6.57;;;3.80;67.50;;;;;;4120752;28;20061;-82
2022/04/28 02:46:19;;;;;;;14.93;7.07;;;3.80;67.40;;;;;;4110522;28;20031;-82
2022/04/28 02:48:20;;;;;;;12.63;6.30;;;3.80;67.50;;;;;;4106362;28;20684;-83
2022/04/28 02:50:21;;;;;;;16.92;7.53;;;3.70;67.40;;;;;;4100420;28;20421;-81
2022/04/28 02:52:22;;;;;;;16.60;6.35;;;3.70;67.40;;;;;;4107136;28;20070;-82
2022/04/28 02:54:23;;;;;;;11.55;6.28;;;3.70;67.40;;;;;;4122179;28;20045;-82
2022/04/28 02:56:25;;;;;;;16.90;6.70;;;3.70;67.40;;;;;;4110023;28;20039;-82
2022/04/28 02:58:26;;;;;;;13.07;6.35;;;3.70;67.50;;;;;;4103586;28;20509;-82
2022/04/28 03:00:27;;;;;;;14.52;7.00;;;3.70;67.50;;;;;;4096979;28;20085;-82
2022/04/28 03:02:27;;;;;;;16.95;7.57;;;3.70;67.50;;;;;;4110379;28;20042;-82
2022/04/28 03:04:28;;;;;;;16.60;7.10;;;3.60;67.50;;;;;;4105808;28;20093;-83
2022/04/28 03:11:07;;;;;;;14.00;6.95;;;3.60;67.60;;;;;;4101213;28;21460;-82
2022/04/28 03:13:08;;;;;;;14.27;6.97;;;3.60;67.60;;;;;;4108419;28;20031;-82
2022/04/28 03:15:08;;;;;;;12.90;6.65;;;3.50;67.60;;;;;;4104193;28;20446;-82
2022/04/28 03:17:09;;;;;;;14.07;7.10;;;3.60;67.70;;;;;;4105598;28;20033;-82
2022/04/28 03:19:10;;;;;;;13.77;7.13;;;3.50;67.70;;;;;;4121577;28;21060;-82
2022/04/28 03:21:14;;;;;;;15.65;7.22;;;3.50;67.80;;;;;;4125662;28;20176;-82
2022/04/28 03:23:14;;;;;;;11.80;6.32;;;3.50;67.80;;;;;;4098503;28;20031;-81
2022/04/28 03:25:15;;;;;;;16.15;6.53;;;3.50;67.80;;;;;;4104597;28;20114;-82
2022/04/28 03:27:15;;;;;;;14.25;7.28;;;3.50;67.90;;;;;;4108179;28;20103;-82
2022/04/28 03:29:16;;;;;;;15.75;6.60;;;3.40;67.80;;;;;;4104608;28;20090;-82
2022/04/28 03:31:17;;;;;;;13.35;7.15;;;3.40;67.80;;;;;;4102446;28;20110;-82
2022/04/28 03:33:18;;;;;;;12.93;6.60;;;3.50;68.00;;;;;;4115233;28;20035;-82
2022/04/28 03:35:19;;;;;;;14.45;6.72;;;3.40;67.90;;;;;;4104397;28;20141;-82
2022/04/28 03:37:19;;;;;;;15.25;7.15;;;3.40;68.00;;;;;;4102358;28;20031;-82
2022/04/28 03:39:20;;;;;;;15.63;7.25;;;3.40;68.00;;;;;;4125096;28;20034;-82
2022/04/28 03:41:21;;;;;;;17.30;7.57;;;3.40;68.10;;;;;;4097617;28;20023;-81
2022/04/28 03:43:25;;;;;;;14.70;7.05;;;3.40;68.10;;;;;;4107125;28;20042;-82
2022/04/28 03:45:26;;;;;;;15.20;7.15;;;3.30;68.00;;;;;;4099852;28;20027;-81
2022/04/28 03:47:32;;;;;;;16.63;7.82;;;3.30;68.00;;;;;;4105706;28;20019;-82
2022/04/28 03:49:33;;;;;;;14.30;7.20;;;3.30;68.20;;;;;;4109925;28;20042;-82
2022/04/28 03:51:33;;;;;;;18.83;7.60;;;3.30;68.30;;;;;;4114950;28;20090;-82
2022/04/28 03:53:34;;;;;;;13.43;6.63;;;3.30;68.40;;;;;;4101181;28;20039;-82
2022/04/28 03:55:34;;;;;;;13.68;7.03;;;3.30;68.50;;;;;;4119696;28;20037;-83
2022/04/28 03:57:36;;;;;;;12.57;6.80;;;3.30;68.70;;;;;;4110905;28;20042;-82
2022/04/28 03:59:37;;;;;;;16.13;7.05;;;3.30;68.80;;;;;;4111982;28;20027;-82
2022/04/28 04:01:37;;;;;;;15.73;6.43;;;3.30;68.80;;;;;;4102544;28;20039;-82
2022/04/28 04:03:38;;;;;;;12.95;7.47;;;3.30;68.90;;;;;;4102697;28;20042;-82
2022/04/28 04:05:38;;;;;;;14.50;6.82;;;3.40;69.00;;;;;;4106066;28;20034;-82
2022/04/28 04:07:39;;;;;;;14.40;7.03;;;3.30;69.00;;;;;;4101896;28;20078;-82
2022/04/28 04:09:40;;;;;;;12.00;7.00;;;3.30;69.10;;;;;;4121937;28;20489;-82
2022/04/28 04:11:41;;;;;;;14.25;6.28;;;3.30;69.10;;;;;;4098774;28;20049;-82
2022/04/28 04:13:41;;;;;;;16.35;6.63;;;3.30;69.20;;;;;;4102639;28;20037;-82
2022/04/28 04:15:42;;;;;;;14.93;6.43;;;3.30;69.20;;;;;;4105139;28;20039;-82
2022/04/28 04:17:45;;;;;;;16.48;6.60;;;3.30;69.30;;;;;;4096842;28;20042;-82
2022/04/28 04:19:46;;;;;;;;;;;3.30;69.40;;;;;;4090769;29;20027;-81
2022/04/28 04:21:46;;;;;;;11.55;6.43;;;3.40;70.40;;;;;;4101703;28;19910;-82
2022/04/28 04:23:47;;;;;;;12.00;6.30;;;3.30;69.40;;;;;;4112326;28;20118;-82
2022/04/28 04:25:48;;;;;;;13.10;7.18;;;3.40;69.40;;;;;;4099370;28;20513;-82
2022/04/28 04:27:48;;;;;;;12.30;6.80;;;3.40;69.50;;;;;;4099060;28;20150;-81
2022/04/28 04:29:49;;;;;;;16.48;6.90;;;3.40;69.70;;;;;;4092172;29;20098;-82
2022/04/28 04:34:08;;;;;;;18.05;7.63;;;3.40;69.90;;;;;;4112134;28;20026;-82
2022/04/28 04:36:09;;;;;;;16.63;6.72;;;3.40;70.10;;;;;;4097799;28;20034;-82
2022/04/28 04:38:10;;;;;;;17.60;7.28;;;3.50;70.30;;;;;;4102933;28;20034;-82
2022/04/28 04:40:11;;;;;;;15.98;7.82;;;3.50;70.50;;;;;;4091528;28;20572;-82
2022/04/28 04:42:12;;;;;;;18.02;8.15;;;3.50;70.60;;;;;;4098557;28;20032;-81
2022/04/28 04:44:15;;;;;;;18.10;8.40;;;3.60;70.90;;;;;;4095722;28;20437;-81
2022/04/28 04:46:15;;;;;;;;;;;3.60;71.10;;;;;;4092519;28;20032;-82
2022/04/28 04:48:16;;;;;;;24.92;9.40;;;3.70;71.90;;;;;;4103125;28;19911;-81
2022/04/28 04:50:17;;;;;;;27.50;8.48;;;3.70;71.50;;;;;;4109448;28;20560;-82
2022/04/28 04:52:17;;;;;;;30.85;9.23;;;3.80;71.90;;;;;;4103210;28;20043;-81
2022/04/28 04:54:20;;;;;;;21.30;8.15;;;3.80;72.20;;;;;;4100508;28;20117;-81
2022/04/28 04:56:20;;;;;;;15.93;8.15;;;3.90;73.20;;;;;;4075799;29;20031;-81
2022/04/28 04:58:21;;;;;;;16.98;8.68;;;3.90;72.70;;;;;;4098701;28;20050;-80
2022/04/28 05:00:21;;;;;;;17.60;8.10;;;4.00;72.90;;;;;;4106229;28;20701;-81
2022/04/28 05:02:23;;;;;;;15.77;7.80;;;4.00;73.10;;;;;;4097212;28;20023;-80
2022/04/28 05:04:24;;;;;;;15.88;7.70;;;4.10;73.20;;;;;;4095104;28;20039;-81
2022/04/28 05:06:24;;;;;;;14.75;7.93;;;4.10;73.40;;;;;;4092310;28;20053;-81
2022/04/28 05:08:25;;;;;;;17.20;7.75;;;4.20;73.70;;;;;;4089119;28;20023;-80
2022/04/28 05:10:25;;;;;;;17.13;7.78;;;4.20;73.80;;;;;;4091373;28;20397;-82
2022/04/28 05:12:26;;;;;;;19.83;6.18;;;4.30;74.00;;;;;;4096574;28;20063;-84
2022/04/28 05:14:27;;;;;;;40.65;9.18;;;4.40;74.20;;;;;;4090170;28;20146;-83
2022/04/28 05:16:27;;;;;;;47.67;9.90;;;4.40;74.90;;;;;;4091645;28;20046;-83
2022/04/28 05:18:28;;;;;;;50.80;9.63;;;4.50;75.30;;;;;;4104181;28;20058;-84
2022/04/28 05:20:29;;;;;;;30.13;8.30;;;4.60;75.50;;;;;;4113040;28;20023;-84
2022/04/28 05:22:29;;;;;;;66.60;9.18;;;4.60;75.50;;;;;;4098607;28;20106;-84
2022/04/28 05:24:30;;;;;;;21.30;8.70;;;4.70;75.80;;;;;;4121243;28;20043;-84
2022/04/28 05:26:30;;;;;;;33.53;8.30;;;4.80;75.60;;;;;;4092794;29;20020;-83
2022/04/28 05:28:31;;;;;;;16.48;8.68;;;4.80;75.70;;;;;;4103993;28;20472;-83
2022/04/28 05:30:32;;;;;;;16.80;8.05;;;4.80;75.50;;;;;;4109963;28;20073;-83
2022/04/28 05:32:32;;;;;;;16.42;8.13;;;4.90;75.80;;;;;;4107596;28;20382;-84
2022/04/28 05:34:33;;;;;;;15.27;7.50;;;4.90;76.20;;;;;;4111155;28;20493;-83
2022/04/28 05:36:34;;;;;;;15.52;8.57;;;5.00;76.40;;;;;;4113539;28;20046;-84
2022/04/28 05:38:38;;;;;;;15.40;7.63;;;5.00;76.60;;;;;;4102162;28;20038;-84
2022/04/28 05:40:40;;;;;;;16.50;7.60;;;5.10;76.90;;;;;;4123270;28;20102;-85
2022/04/28 05:48:11;;;;;;;17.65;7.28;;;5.30;77.30;;;;;;4126012;23;20425;-84
2022/04/28 05:50:11;;;;;;;17.02;7.28;;;5.30;77.60;;;;;;4103463;28;20027;-83
2022/04/28 05:52:18;;;;;;;18.52;8.25;;;5.50;77.80;;;;;;4086605;29;20107;-84
2022/04/28 05:54:19;;;;;;;17.70;8.20;;;5.50;78.00;;;;;;4084206;29;20044;-84
2022/04/28 05:56:19;;;;;;;17.05;8.10;;;5.60;78.40;;;;;;4098434;29;20127;-84
2022/04/28 06:05:24;;;;;;;19.67;7.28;;;5.90;78.20;;;;;;4059056;29;20107;-84
2022/04/28 06:07:24;;;;;;;18.50;7.13;;;6.10;78.10;;;;;;4078000;29;20031;-84
2022/04/28 06:09:25;;;;;;;19.63;6.97;;;6.10;77.60;;;;;;4101848;28;20127;-83
2022/04/28 06:11:26;;;;;;;16.35;6.53;;;6.20;77.60;;;;;;4102514;28;20134;-84
2022/04/28 06:13:27;;;;;;;16.33;6.03;;;6.30;77.90;;;;;;4084714;29;20055;-84
2022/04/28 06:15:28;;;;;;;15.05;6.10;;;6.40;77.90;;;;;;4097191;28;20044;-84
2022/04/28 06:17:28;;;;;;;19.17;5.25;;;6.50;77.40;;;;;;4088803;29;20027;-84
2022/04/28 06:19:29;;;;;;;15.32;5.07;;;6.60;77.20;;;;;;4103442;28;20152;-84
2022/04/28 06:21:30;;;;;;;13.88;4.95;;;6.70;76.80;;;;;;4084388;29;20525;-84
2022/04/28 06:23:30;;;;;;;14.93;5.32;;;6.70;75.50;;;;;;4082588;29;20607;-84
2022/04/28 06:25:32;;;;;;;14.32;3.92;;;6.80;76.20;;;;;;4102598;28;20165;-85
2022/04/28 06:27:32;;;;;;;18.33;4.22;;;6.90;75.80;;;;;;4086418;29;20036;-85
2022/04/28 06:29:33;;;;;;;15.40;3.25;;;7.00;74.30;;;;;;4089783;29;20120;-84
2022/04/28 06:31:34;;;;;;;14.63;3.35;;;7.10;74.60;;;;;;4100163;28;20416;-86
2022/04/28 06:33:39;;;;;;;15.07;3.08;;;7.20;74.70;;;;;;4099019;29;20062;-84
2022/04/28 06:35:39;;;;;;;17.17;3.33;;;7.20;74.30;;;;;;4076760;29;20035;-85
2022/04/28 06:37:40;;;;;;;13.52;2.72;;;7.30;73.50;;;;;;4078942;29;20114;-84
2022/04/28 06:39:41;;;;;;;13.05;2.92;;;7.40;72.90;;;;;;4101190;28;20031;-85
2022/04/28 06:41:42;;;;;;;15.68;2.47;;;7.60;72.20;;;;;;4098157;28;20023;-84
2022/04/28 06:43:42;;;;;;;8.32;2.60;;;7.60;71.70;;;;;;4099148;28;20084;-85
2022/04/28 06:46:11;;;;;;;23.50;3.22;;;7.70;71.40;;;;;;4087207;29;20030;-84
2022/04/28 06:48:04;;;;;;;12.57;2.65;;;7.80;70.60;;;;;;4083491;29;20474;-84
2022/04/28 06:50:05;;;;;;;13.45;2.90;;;7.90;70.20;;;;;;4103787;28;20055;-85
2022/04/28 06:52:06;;;;;;;10.57;3.05;;;7.90;69.60;;;;;;4100148;28;20023;-85
2022/04/28 06:54:06;;;;;;;10.13;2.67;;;8.00;69.10;;;;;;4094856;28;20038;-84
2022/04/28 06:56:07;;;;;;;13.27;2.38;;;8.10;68.20;;;;;;4073689;29;20102;-85
2022/04/28 06:58:08;;;;;;;14.32;2.58;;;8.30;68.40;;;;;;4069591;29;20054;-85
2022/04/28 07:00:09;;;;;;;16.20;2.15;;;8.30;68.20;;;;;;4083853;29;20414;-84
2022/04/28 07:02:10;;;;;;;8.90;2.28;;;8.30;67.10;;;;;;4084081;29;20033;-85
2022/04/28 07:04:10;;;;;;;14.32;2.60;;;8.40;66.90;;;;;;4081076;29;20032;-85
2022/04/28 07:06:11;;;;;;;14.43;2.50;;;8.50;66.30;;;;;;4087092;29;20240;-84
2022/04/28 07:08:11;;;;;;;7.82;1.95;;;8.60;65.70;;;;;;4065758;29;20440;-84
2022/04/28 07:10:12;;;;;;;9.25;1.90;;;8.60;65.40;;;;;;4093981;29;20039;-84
2022/04/28 07:12:13;;;;;;;16.92;2.33;;;8.70;66.00;;;;;;4067773;29;20094;-84
2022/04/28 07:14:14;;;;;;;10.32;2.25;;;8.80;64.80;;;;;;4081159;29;20028;-84
2022/04/28 07:16:14;;;;;;;11.55;2.15;;;8.90;64.40;;;;;;4099928;28;20032;-85
2022/04/28 07:18:16;;;;;;;12.85;2.08;;;8.90;63.70;;;;;;4069373;29;20024;-85
2022/04/28 07:20:16;;;;;;;14.98;2.10;;;9.00;63.50;;;;;;4103601;28;20035;-85
2022/04/28 07:22:17;;;;;;;10.30;1.88;;;9.00;63.30;;;;;;4088293;29;20131;-84
2022/04/28 07:24:18;;;;;;;14.95;1.98;;;9.10;62.50;;;;;;4084641;29;20429;-84
2022/04/28 07:26:18;;;;;;;14.57;2.20;;;9.20;62.40;;;;;;4101568;28;20023;-84
2022/04/28 07:28:19;;;;;;;12.40;1.77;;;9.20;61.20;;;;;;4107739;28;20023;-85
2022/04/28 07:30:20;;;;;;;15.73;2.65;;;9.30;61.40;;;;;;4085651;29;20557;-85
2022/04/28 07:32:21;;;;;;;14.20;2.22;;;9.40;61.60;;;;;;4067683;29;20564;-85
2022/04/28 07:34:22;;;;;;;7.55;1.73;;;9.40;61.80;;;;;;4103335;28;20063;-85
2022/04/28 07:36:22;;;;;;;12.00;1.80;;;9.60;61.50;;;;;;4081312;29;20040;-85
2022/04/28 07:38:23;;;;;;;13.27;2.65;;;9.60;61.20;;;;;;4086453;29;20262;-85
2022/04/28 07:40:24;;;;;;;19.33;2.72;;;9.70;60.90;;;;;;4086637;29;20036;-84
2022/04/28 07:42:24;;;;;;;7.43;1.92;;;9.70;60.40;;;;;;4099963;28;20027;-85
2022/04/28 07:44:25;;;;;;;6.72;1.63;;;9.90;60.10;;;;;;4077632;29;20418;-85
2022/04/28 07:46:26;;;;;;;14.18;2.35;;;9.90;59.80;;;;;;4098172;28;20040;-85
2022/04/28 07:48:27;;;;;;;9.25;1.73;;;9.90;60.40;;;;;;4097088;28;20109;-85
2022/04/28 07:50:30;;;;;;;9.50;1.90;;;10.10;59.70;;;;;;4097026;29;20035;-85
2022/04/28 07:52:31;;;;;;;;;;;10.10;59.60;;;;;;4094485;28;20033;-85
2022/04/28 07:54:31;;;;;;;11.88;2.05;;;10.20;59.50;;;;;;4076755;29;19965;-85
2022/04/28 07:56:32;;;;;;;12.95;2.10;;;10.30;59.60;;;;;;4082249;29;20083;-85
2022/04/28 07:58:33;;;;;;;11.68;2.13;;;10.40;59.20;;;;;;4096935;28;20143;-85
2022/04/28 08:00:33;;;;;;;10.07;1.77;;;10.40;58.40;;;;;;4103033;28;20034;-85
2022/04/28 08:02:38;;;;;;;11.70;1.85;;;10.40;58.30;;;;;;4064592;29;20055;-85
2022/04/28 08:04:39;;;;;;;12.82;2.10;;;10.50;58.20;;;;;;4083309;29;20035;-85
2022/04/28 08:06:39;;;;;;;9.93;2.33;;;10.60;58.30;;;;;;4096195;28;20024;-85
2022/04/28 08:08:41;;;;;;;11.00;2.28;;;10.60;57.80;;;;;;4094672;28;20090;-85
2022/04/28 08:10:42;;;;;;;9.38;1.85;;;10.80;57.40;;;;;;4100435;28;20105;-85
2022/04/28 08:12:42;;;;;;;13.98;1.92;;;10.80;57.10;;;;;;4089329;28;20402;-85
2022/04/28 08:14:43;;;;;;;7.93;1.88;;;10.80;56.80;;;;;;4094685;28;20043;-85
2022/04/28 08:16:46;;;;;;;7.70;1.90;;;10.90;56.40;;;;;;4097330;28;20031;-85
2022/04/28 08:18:46;;;;;;;15.07;2.00;;;10.90;55.80;;;;;;4083220;29;20470;-85
2022/04/28 08:20:47;;;;;;;9.25;1.90;;;10.90;56.00;;;;;;4093498;28;20031;-85
2022/04/28 08:22:47;;;;;;;9.98;1.90;;;11.00;55.70;;;;;;4088939;28;20123;-85
2022/04/28 08:24:48;;;;;;;12.18;1.98;;;11.10;55.70;;;;;;4074124;29;20106;-85
2022/04/28 08:26:52;;;;;;;8.93;2.15;;;11.00;55.20;;;;;;4104559;28;20048;-85
2022/04/28 08:28:53;;;;;;;5.82;1.42;;;11.10;54.00;;;;;;4083971;29;20023;-85
2022/04/28 08:30:54;;;;;;;7.03;1.52;;;11.20;53.40;;;;;;4104721;28;20182;-84
2022/04/28 08:32:54;;;;;;;9.75;1.50;;;11.20;52.00;;;;;;4082054;29;20107;-86
2022/04/28 08:34:55;;;;;;;12.80;1.75;;;11.30;51.40;;;;;;4092698;28;20028;-85
2022/04/28 08:36:56;;;;;;;14.82;1.90;;;11.30;51.90;;;;;;4100855;28;20050;-86
2022/04/28 08:38:56;;;;;;;14.32;1.60;;;11.30;51.50;;;;;;4100617;28;20156;-86
2022/04/28 08:41:02;;;;;;;8.88;1.65;;;11.40;51.30;;;;;;4067630;29;20068;-85
2022/04/28 08:43:04;;;;;;;7.25;1.30;;;11.40;50.80;;;;;;4079904;29;20031;-85
2022/04/28 08:45:05;;;;;;;7.50;1.33;;;11.40;50.00;;;;;;4096076;28;20619;-85
2022/04/28 08:47:06;;;;;;;10.70;1.33;;;11.50;49.80;;;;;;4096255;28;20115;-85
2022/04/28 08:49:12;;;;;;;5.45;1.00;;;11.50;49.20;;;;;;4077357;29;20407;-85
2022/04/28 08:51:13;;;;;;;10.90;1.52;;;11.60;48.40;;;;;;4079220;29;20032;-84
2022/04/28 08:53:54;;;;;;;11.23;1.40;;;11.70;48.60;;;;;;4096134;28;20038;-85
2022/04/28 09:03:31;;;;;;;5.35;1.20;;;11.90;45.90;;;;;;3946885;30;20051;-85
2022/04/28 09:05:33;;;;;;;6.63;1.40;;;12.00;45.30;;;;;;3953180;29;20214;-85
2022/04/28 09:07:39;;;;;;;8.63;1.58;;;12.00;45.90;;;;;;3956131;29;20067;-85
2022/04/28 09:09:39;;;;;;;6.82;1.48;;;12.00;46.80;;;;;;3953959;30;20050;-85
2022/04/28 09:11:43;;;;;;;10.85;1.70;;;12.20;47.50;;;;;;3955819;29;20073;-85
2022/04/28 09:16:08;;;;;;;7.78;1.17;;;12.20;46.10;;;;;;3940363;30;20104;-85
2022/04/28 09:18:09;;;;;;;9.27;1.52;;;12.30;46.00;;;;;;3957823;29;20044;-86
2022/04/28 09:20:13;;;;;;;9.80;1.50;;;12.30;45.10;;;;;;3956461;29;20047;-85
2022/04/28 09:22:14;;;;;;;6.82;1.10;;;12.40;45.10;;;;;;3955238;29;20039;-85
2022/04/28 09:24:15;;;;;;;6.05;1.42;;;12.30;44.50;;;;;;3956597;29;20028;-85
2022/04/28 09:26:16;;;;;;;11.07;1.67;;;12.30;44.90;;;;;;3958311;29;20392;-84
2022/04/28 09:28:17;;;;;;;16.40;1.80;;;12.50;45.40;;;;;;3974915;29;20043;-85
2022/04/28 09:30:22;;;;;;;9.05;1.45;;;12.40;45.60;;;;;;3976580;29;20039;-87
2022/04/28 09:32:25;;;;;;;9.85;1.65;;;12.40;45.80;;;;;;3968712;29;20046;-86
2022/04/28 09:34:27;;;;;;;5.50;1.33;;;12.40;46.00;;;;;;3970976;29;20030;-86
2022/04/28 09:36:29;;;;;;;8.48;1.40;;;12.50;46.80;;;;;;3972953;29;20051;-85
2022/04/28 09:38:30;;;;;;;5.23;1.10;;;12.50;44.80;;;;;;3976379;29;20101;-85
2022/04/28 09:42:50;;;;;;;6.90;1.33;;;12.50;43.20;;;;;;4091487;28;20035;-86
2022/04/28 09:44:53;;;;;;;12.80;1.40;;;12.60;42.90;;;;;;4091334;29;20024;-85
2022/04/28 09:46:54;;;;;;;5.97;1.30;;;12.70;42.30;;;;;;4080477;29;20043;-86
2022/04/28 09:48:55;;;;;;;6.95;1.23;;;12.80;42.70;;;;;;4092204;28;20628;-86
2022/04/28 09:51:22;;;;;;;8.90;1.67;;;12.90;43.40;;;;;;4090610;28;20031;-85
2022/04/28 09:53:23;;;;;;;6.43;1.10;;;12.90;43.70;;;;;;4062371;29;20326;-86
2022/04/28 09:55:26;;;;;;;4.20;1.10;;;13.00;44.30;;;;;;4097242;28;20042;-86
2022/04/28 09:57:27;;;;;;;10.73;1.20;;;13.00;44.20;;;;;;4078513;29;20157;-85
2022/04/28 09:59:28;;;;;;;9.88;1.30;;;13.20;44.20;;;;;;4097158;28;20102;-85
2022/04/28 10:01:29;;;;;;;7.10;0.77;;;13.20;43.90;;;;;;4080118;29;20035;-85
2022/04/28 10:03:33;;;;;;;7.72;1.10;;;13.20;42.10;;;;;;4092533;28;20028;-86
2022/04/28 10:05:35;;;;;;;9.95;1.40;;;13.20;41.20;;;;;;4089251;29;20028;-86
2022/04/28 10:07:36;;;;;;;8.27;1.13;;;13.40;41.60;;;;;;4096421;28;20039;-85
2022/04/28 10:09:39;;;;;;;6.55;1.05;;;13.30;41.40;;;;;;4093185;28;20466;-85
2022/04/28 10:11:40;;;;;;;6.07;1.52;;;13.30;41.40;;;;;;4075232;29;20056;-86
2022/04/28 10:13:41;;;;;;;5.53;1.00;;;13.40;41.90;;;;;;4092865;28;20523;-85
2022/04/28 10:15:42;;;;;;;5.53;1.60;;;13.40;42.20;;;;;;4097719;28;20035;-86
2022/04/28 10:18:48;;;;;;;6.75;1.17;;;13.50;42.60;;;;;;4062748;29;20088;-85
2022/04/28 10:32:56;;;;;;;4.78;1.13;;;13.80;39.70;;;;;;3969615;29;20516;-86
2022/04/28 10:35:06;;;;;;;8.10;1.13;;;13.80;40.00;;;;;;3982234;29;20125;-85
2022/04/28 10:37:11;;;;;;;5.55;1.30;;;13.80;40.50;;;;;;4002409;29;20065;-85
2022/04/28 10:39:12;;;;;;;7.38;1.40;;;13.80;40.20;;;;;;3999851;29;20119;-86
2022/04/28 10:41:16;;;;;;;7.18;1.40;;;13.80;39.30;;;;;;4002003;29;20124;-86
2022/04/28 10:43:31;;;;;;;4.38;1.02;;;13.90;39.80;;;;;;4005906;29;20161;-85
2022/04/28 10:46:06;;;;;;;13.82;1.75;;;14.00;39.80;;;;;;4003333;29;20088;-85
2022/04/28 10:48:30;;;;;;;11.52;1.40;;;13.90;39.50;;;;;;3995666;29;20041;-87
2022/04/28 10:51:18;;;;;;;10.52;0.90;;;13.90;39.50;;;;;;4001059;29;20042;-86
2022/04/28 10:53:20;;;;;;;6.75;1.13;;;14.00;38.00;;;;;;3997853;29;20622;-88
2022/04/28 10:55:23;;;;;;;5.97;1.27;;;14.00;38.70;;;;;;4003875;29;20038;-88
2022/04/28 10:57:43;;;;;;;6.30;0.70;;;14.00;38.10;;;;;;4050936;29;20272;-88
2022/04/28 10:59:49;;;;;;;4.20;1.10;;;14.10;37.60;;;;;;4108360;28;20051;-87
2022/04/28 11:01:49;;;;;;;5.70;0.85;;;14.10;38.00;;;;;;4096279;28;20067;-87
2022/04/28 11:03:59;;;;;;;6.68;1.00;;;14.10;38.30;;;;;;4091373;28;20468;-87
2022/04/28 11:06:40;;;;;;;7.35;1.38;;;14.20;38.10;;;;;;4097914;28;20224;-87
2022/04/28 11:09:01;;;;;;;8.68;1.00;;;14.10;38.10;;;;;;4079606;29;20119;-87
2022/04/28 11:12:02;;;;;;;4.90;0.90;;;14.20;38.70;;;;;;4062751;29;20399;-88
2022/04/28 11:14:03;;;;;;;6.05;1.10;;;14.30;37.00;;;;;;4062024;29;20047;-87
2022/04/28 11:23:43;;;;;;;3.45;1.00;;;14.30;38.00;;;;;;4058553;29;20099;-86
2022/04/28 11:26:38;;;;;;;7.40;1.10;;;14.30;37.00;;;;;;4033349;29;20036;-87
2022/04/28 11:29:44;;;;;;;9.23;1.13;;;14.40;37.10;;;;;;3970990;29;20152;-86
2022/04/28 11:34:52;;;;;;;7.05;1.10;;;14.40;36.70;;;;;;3943845;30;20047;-86
2022/04/28 11:36:53;;;;;;;8.07;1.45;;;14.40;37.50;;;;;;3934583;30;20162;-88
2022/04/28 11:38:57;;;;;;;6.55;1.10;;;14.40;36.70;;;;;;3936867;30;20036;-87
2022/04/28 11:41:03;;;;;;;3.70;0.93;;;14.50;37.90;;;;;;3931026;30;20079;-87
2022/04/28 11:43:05;;;;;;;8.95;1.30;;;14.30;37.80;;;;;;3931357;30;20044;-86